Time;durP1;ratioP1;P1;durP2;ratioP2;P2;SDS_P1;SDS_P2;PMS_P1;PMS_P2;Temp;Humidity;BMP_temperature;BMP_pressure;BME280_temperature;BME280_humidity;BME280_pressure;Samples;Min_cycle;Max_cycle;Signal;HPM_P1;HPM_P2
2023/07/30 00:00:41;;;;;;;1.70;1.33;;;;;;;;;;5002030;28;20084;-72
2023/07/30 00:03:06;;;;;;;1.33;1.20;;;;;;;;;;5009524;28;20041;-73
2023/07/30 00:05:32;;;;;;;1.50;1.33;;;;;;;;;;5004570;28;20084;-72
2023/07/30 00:07:57;;;;;;;2.08;1.27;;;;;;;;;;5003075;28;20592;-72
2023/07/30 00:10:23;;;;;;;1.30;1.20;;;;;;;;;;5002612;28;20054;-72
2023/07/30 00:12:48;;;;;;;4.20;1.58;;;;;;;;;;5002133;28;20053;-72
2023/07/30 00:15:13;;;;;;;2.83;1.30;;;;;;;;;;5000933;28;20045;-72
2023/07/30 00:17:39;;;;;;;4.40;1.40;;;;;;;;;;5000240;28;20054;-72
2023/07/30 00:20:07;;;;;;;1.27;1.17;;;;;;;;;;5001785;28;20136;-73
2023/07/30 00:22:33;;;;;;;6.93;1.40;;;;;;;;;;5002225;28;20038;-72
2023/07/30 00:24:58;;;;;;;1.60;1.05;;;;;;;;;;5001351;28;20135;-72
2023/07/30 00:27:24;;;;;;;2.05;1.20;;;;;;;;;;5003169;28;20057;-72
2023/07/30 00:29:49;;;;;;;1.50;1.40;;;;;;;;;;5003746;28;20049;-71
2023/07/30 00:32:16;;;;;;;1.15;1.05;;;;;;;;;;5003550;28;20042;-72
2023/07/30 00:34:43;;;;;;;2.58;1.00;;;;;;;;;;5002232;28;20577;-72
2023/07/30 00:37:08;;;;;;;1.50;1.40;;;;;;;;;;5000082;28;20049;-72
2023/07/30 00:39:34;;;;;;;2.28;1.00;;;;;;;;;;5003559;28;20061;-72
2023/07/30 00:41:59;;;;;;;2.85;1.27;;;;;;;;;;5009716;28;20149;-72
2023/07/30 00:44:25;;;;;;;1.27;1.17;;;;;;;;;;5006000;28;20049;-72
2023/07/30 00:46:51;;;;;;;2.38;1.35;;;;;;;;;;5011126;28;20053;-72
2023/07/30 00:49:18;;;;;;;1.13;1.10;;;;;;;;;;5003876;28;20112;-72
2023/07/30 00:51:45;;;;;;;2.08;1.15;;;;;;;;;;5006632;28;20054;-73
2023/07/30 00:54:11;;;;;;;3.35;1.35;;;;;;;;;;5013413;28;20038;-72
2023/07/30 00:56:38;;;;;;;1.40;1.17;;;;;;;;;;5009059;28;20497;-72
2023/07/30 00:59:04;;;;;;;2.60;1.38;;;;;;;;;;5004371;28;20054;-73
2023/07/30 01:01:35;;;;;;;2.15;1.27;;;;;;;;;;5006727;28;20045;-72
2023/07/30 01:04:01;;;;;;;1.38;1.27;;;;;;;;;;5015974;28;20161;-72
2023/07/30 01:06:27;;;;;;;1.30;1.20;;;;;;;;;;5001021;28;20519;-71
2023/07/30 01:08:53;;;;;;;3.95;1.23;;;;;;;;;;5005988;28;20041;-71
2023/07/30 01:11:19;;;;;;;1.75;1.10;;;;;;;;;;4998935;28;20045;-72
2023/07/30 01:13:44;;;;;;;3.63;1.25;;;;;;;;;;5007250;28;20125;-72
2023/07/30 01:16:11;;;;;;;3.67;1.23;;;;;;;;;;5000116;28;20449;-71
2023/07/30 01:18:36;;;;;;;1.90;1.27;;;;;;;;;;5003199;28;20042;-72
2023/07/30 01:21:02;;;;;;;2.45;1.25;;;;;;;;;;5008734;28;20940;-71
2023/07/30 01:23:28;;;;;;;1.13;1.00;;;;;;;;;;5008451;28;20046;-72
2023/07/30 01:26:02;;;;;;;3.22;1.40;;;;;;;;;;5006313;28;20456;-71
2023/07/30 01:28:29;;;;;;;3.50;1.20;;;;;;;;;;5008571;28;20564;-71
2023/07/30 01:30:57;;;;;;;1.65;1.10;;;;;;;;;;5007103;28;20038;-74
2023/07/30 01:33:22;;;;;;;1.60;1.20;;;;;;;;;;5002788;28;20764;-71
2023/07/30 01:35:48;;;;;;;3.08;1.40;;;;;;;;;;4999376;28;20499;-71
2023/07/30 01:38:14;;;;;;;5.03;1.40;;;;;;;;;;4997992;28;20111;-71
2023/07/30 01:40:40;;;;;;;1.30;1.20;;;;;;;;;;5003689;28;20033;-71
2023/07/30 01:43:07;;;;;;;2.03;1.25;;;;;;;;;;4997239;28;20103;-71
2023/07/30 01:45:34;;;;;;;0.93;0.90;;;;;;;;;;4999735;28;20412;-71
2023/07/30 01:47:59;;;;;;;1.95;1.10;;;;;;;;;;4984488;28;20132;-72
2023/07/30 01:50:25;;;;;;;4.90;1.40;;;;;;;;;;4999446;28;20049;-72
2023/07/30 01:52:50;;;;;;;1.05;0.82;;;;;;;;;;5003499;28;20049;-71
2023/07/30 01:55:16;;;;;;;1.23;1.13;;;;;;;;;;5002637;28;20072;-72
2023/07/30 01:57:41;;;;;;;2.10;0.93;;;;;;;;;;4999454;28;20140;-71
2023/07/30 02:00:08;;;;;;;4.55;1.10;;;;;;;;;;4998456;28;20307;-71
2023/07/30 02:02:35;;;;;;;4.25;1.20;;;;;;;;;;5001805;28;20042;-71
2023/07/30 02:05:01;;;;;;;1.55;0.90;;;;;;;;;;5000056;28;20045;-72
2023/07/30 02:07:26;;;;;;;1.35;1.13;;;;;;;;;;5003580;28;20084;-72
2023/07/30 02:09:51;;;;;;;1.10;0.93;;;;;;;;;;4998741;28;20406;-72
2023/07/30 02:12:17;;;;;;;3.70;0.93;;;;;;;;;;4999404;28;20983;-71
2023/07/30 02:14:43;;;;;;;0.93;0.82;;;;;;;;;;5003012;28;20079;-71
2023/07/30 02:17:09;;;;;;;1.75;1.60;;;;;;;;;;4999471;28;20108;-71
2023/07/30 02:19:34;;;;;;;0.93;0.85;;;;;;;;;;4999294;28;20069;-71
2023/07/30 02:21:59;;;;;;;2.25;1.10;;;;;;;;;;4999423;28;20073;-71
2023/07/30 02:24:26;;;;;;;1.65;1.20;;;;;;;;;;5006822;28;20041;-71
2023/07/30 02:26:52;;;;;;;1.73;1.13;;;;;;;;;;4998351;28;20042;-72
2023/07/30 02:29:17;;;;;;;1.55;1.15;;;;;;;;;;4998283;28;20071;-71
2023/07/30 02:31:43;;;;;;;2.25;1.20;;;;;;;;;;4998899;28;20418;-71
2023/07/30 02:34:08;;;;;;;1.27;1.13;;;;;;;;;;5002823;28;20050;-71
2023/07/30 02:36:34;;;;;;;1.13;1.02;;;;;;;;;;5009449;28;20091;-71
2023/07/30 02:38:59;;;;;;;1.15;1.05;;;;;;;;;;5005324;28;20052;-72
2023/07/30 02:41:25;;;;;;;1.73;1.05;;;;;;;;;;5012818;28;20056;-71
2023/07/30 02:43:50;;;;;;;1.45;1.35;;;;;;;;;;5011732;28;20419;-71
2023/07/30 02:46:15;;;;;;;3.30;1.38;;;;;;;;;;5002448;28;20936;-71
2023/07/30 02:48:41;;;;;;;1.67;1.08;;;;;;;;;;4998175;28;20046;-72
2023/07/30 02:51:06;;;;;;;1.33;1.23;;;;;;;;;;4999710;28;20515;-72
2023/07/30 02:53:32;;;;;;;1.73;1.00;;;;;;;;;;4998726;28;20037;-71
2023/07/30 02:55:57;;;;;;;4.10;1.10;;;;;;;;;;4998656;28;20095;-72
2023/07/30 02:58:23;;;;;;;1.70;1.00;;;;;;;;;;4998889;28;20057;-72
2023/07/30 03:00:48;;;;;;;1.67;1.23;;;;;;;;;;4998783;28;20045;-72
2023/07/30 03:03:14;;;;;;;1.70;1.05;;;;;;;;;;4997951;28;20084;-72
2023/07/30 03:05:43;;;;;;;1.30;1.20;;;;;;;;;;5004450;28;20053;-71
2023/07/30 03:08:08;;;;;;;1.75;1.30;;;;;;;;;;4999761;28;20081;-71
2023/07/30 03:10:36;;;;;;;5.32;1.27;;;;;;;;;;5006380;28;20124;-71
2023/07/30 03:13:02;;;;;;;3.03;1.30;;;;;;;;;;5001232;28;20128;-72
2023/07/30 03:15:27;;;;;;;1.92;1.33;;;;;;;;;;5002293;28;20095;-71
2023/07/30 03:17:53;;;;;;;10.30;1.10;;;;;;;;;;5002353;28;20132;-71
2023/07/30 03:20:18;;;;;;;1.20;1.10;;;;;;;;;;5002171;28;20484;-71
2023/07/30 03:22:43;;;;;;;1.38;1.27;;;;;;;;;;5007615;28;20702;-71
2023/07/30 03:25:09;;;;;;;1.40;1.30;;;;;;;;;;5002606;28;21057;-71
2023/07/30 03:27:34;;;;;;;1.90;1.23;;;;;;;;;;5002272;28;20522;-71
2023/07/30 03:30:00;;;;;;;2.35;1.33;;;;;;;;;;5002929;28;20065;-71
2023/07/30 03:32:25;;;;;;;1.27;1.17;;;;;;;;;;5002854;28;20046;-71
2023/07/30 03:34:51;;;;;;;1.55;1.27;;;;;;;;;;5007469;28;20526;-71
2023/07/30 03:37:16;;;;;;;2.00;1.30;;;;;;;;;;5002700;28;20064;-71
2023/07/30 03:39:42;;;;;;;1.35;1.25;;;;;;;;;;5005727;28;20068;-71
2023/07/30 03:42:07;;;;;;;2.00;1.50;;;;;;;;;;5001257;28;20038;-71
2023/07/30 03:44:34;;;;;;;1.48;1.33;;;;;;;;;;5002707;28;20046;-71
2023/07/30 03:47:00;;;;;;;1.88;1.38;;;;;;;;;;5000408;28;20117;-71
2023/07/30 03:49:25;;;;;;;1.58;1.30;;;;;;;;;;5003328;28;20053;-71
2023/07/30 03:51:51;;;;;;;1.95;1.00;;;;;;;;;;5002655;28;20077;-71
2023/07/30 03:54:17;;;;;;;1.30;1.20;;;;;;;;;;5006246;28;20045;-70
2023/07/30 03:56:42;;;;;;;1.00;1.00;;;;;;;;;;5001768;28;20038;-70
2023/07/30 03:59:08;;;;;;;1.65;1.52;;;;;;;;;;5004262;28;20057;-71
2023/07/30 04:01:33;;;;;;;3.17;1.30;;;;;;;;;;5002571;28;20042;-70
2023/07/30 04:03:59;;;;;;;1.50;1.40;;;;;;;;;;5008486;28;20049;-71
2023/07/30 04:06:24;;;;;;;2.17;1.40;;;;;;;;;;5009054;28;20084;-71
2023/07/30 04:08:50;;;;;;;2.95;1.35;;;;;;;;;;5017571;28;20048;-70
2023/07/30 04:11:15;;;;;;;1.30;1.20;;;;;;;;;;5000579;28;20045;-71
2023/07/30 04:13:41;;;;;;;1.25;1.15;;;;;;;;;;5008438;28;20063;-71
2023/07/30 04:16:07;;;;;;;2.22;1.40;;;;;;;;;;5006804;28;20128;-71
2023/07/30 04:18:32;;;;;;;1.92;1.50;;;;;;;;;;5000989;28;20060;-70
2023/07/30 04:20:58;;;;;;;1.48;1.38;;;;;;;;;;5000278;28;20525;-71
2023/07/30 04:23:24;;;;;;;2.05;1.10;;;;;;;;;;5002218;28;20054;-71
2023/07/30 04:25:50;;;;;;;1.50;1.40;;;;;;;;;;5001246;28;20052;-71
2023/07/30 04:28:15;;;;;;;1.55;1.45;;;;;;;;;;5005104;28;20046;-71
2023/07/30 04:30:42;;;;;;;2.83;1.50;;;;;;;;;;5000544;28;20110;-71
2023/07/30 04:33:08;;;;;;;1.63;1.40;;;;;;;;;;4999898;28;20989;-71
2023/07/30 04:35:36;;;;;;;1.55;1.38;;;;;;;;;;5000713;28;20046;-71
2023/07/30 04:38:01;;;;;;;4.53;1.40;;;;;;;;;;5002292;28;20191;-71
2023/07/30 04:40:27;;;;;;;1.83;1.48;;;;;;;;;;5000153;28;20042;-70
2023/07/30 04:42:53;;;;;;;3.35;1.70;;;;;;;;;;5001564;28;20157;-70
2023/07/30 04:45:19;;;;;;;1.50;1.40;;;;;;;;;;4999485;28;20132;-70
2023/07/30 04:47:47;;;;;;;1.75;1.60;;;;;;;;;;4999589;28;20403;-71
2023/07/30 04:50:12;;;;;;;1.50;1.40;;;;;;;;;;5004708;28;20048;-71
2023/07/30 04:52:38;;;;;;;1.52;1.42;;;;;;;;;;5000078;28;20051;-71
2023/07/30 04:55:04;;;;;;;1.58;1.48;;;;;;;;;;5008721;28;20044;-71
2023/07/30 04:57:29;;;;;;;2.70;1.45;;;;;;;;;;5000115;28;20068;-71
2023/07/30 04:59:54;;;;;;;1.92;1.55;;;;;;;;;;5006336;28;20506;-71
2023/07/30 05:02:20;;;;;;;1.52;1.40;;;;;;;;;;5001457;28;20037;-71
2023/07/30 05:04:45;;;;;;;1.90;1.40;;;;;;;;;;5000437;28;20088;-71
2023/07/30 05:07:11;;;;;;;1.52;1.42;;;;;;;;;;5000633;28;20054;-71
2023/07/30 05:09:36;;;;;;;2.00;1.38;;;;;;;;;;5001410;28;20113;-72
2023/07/30 05:12:02;;;;;;;7.57;1.15;;;;;;;;;;5003830;28;20050;-71
2023/07/30 05:14:27;;;;;;;1.85;1.23;;;;;;;;;;5001406;28;20042;-71
2023/07/30 05:16:53;;;;;;;1.90;1.30;;;;;;;;;;5004447;28;20049;-71
2023/07/30 05:19:18;;;;;;;2.30;1.48;;;;;;;;;;5000848;28;20046;-71
2023/07/30 05:21:43;;;;;;;1.55;1.20;;;;;;;;;;5010819;28;20110;-71
2023/07/30 05:24:09;;;;;;;2.42;1.20;;;;;;;;;;5001631;28;20399;-71
2023/07/30 05:26:34;;;;;;;1.23;1.13;;;;;;;;;;5000946;28;20042;-70
2023/07/30 05:29:00;;;;;;;1.10;1.00;;;;;;;;;;5000384;28;20404;-71
2023/07/30 05:31:26;;;;;;;3.95;1.38;;;;;;;;;;5000856;28;20499;-70
2023/07/30 05:33:51;;;;;;;1.40;1.30;;;;;;;;;;5003032;28;20049;-71
2023/07/30 05:36:17;;;;;;;4.97;1.42;;;;;;;;;;4999836;28;20640;-71
2023/07/30 05:38:42;;;;;;;1.75;1.23;;;;;;;;;;5001037;28;20612;-71
2023/07/30 05:41:08;;;;;;;1.52;1.33;;;;;;;;;;4999047;28;20119;-70
2023/07/30 05:43:33;;;;;;;1.73;1.58;;;;;;;;;;5008779;28;20049;-71
2023/07/30 05:45:58;;;;;;;1.45;1.35;;;;;;;;;;5016958;28;20041;-71
2023/07/30 05:48:24;;;;;;;1.40;1.10;;;;;;;;;;5007877;28;20326;-71
2023/07/30 05:50:49;;;;;;;1.20;1.10;;;;;;;;;;5013124;28;20383;-71
2023/07/30 05:53:15;;;;;;;1.35;1.25;;;;;;;;;;5002329;28;20107;-71
2023/07/30 05:55:40;;;;;;;1.30;1.20;;;;;;;;;;5003727;28;20053;-72
2023/07/30 05:58:05;;;;;;;1.48;1.38;;;;;;;;;;4999174;28;20072;-71
2023/07/30 06:00:31;;;;;;;1.30;0.82;;;;;;;;;;5000740;28;20160;-71
2023/07/30 06:02:57;;;;;;;3.55;1.20;;;;;;;;;;5001551;28;20525;-72
2023/07/30 06:05:22;;;;;;;1.30;1.20;;;;;;;;;;5000280;28;20091;-71
2023/07/30 06:07:47;;;;;;;1.33;1.10;;;;;;;;;;5003185;28;20045;-71
2023/07/30 06:10:13;;;;;;;4.18;1.08;;;;;;;;;;5004369;28;20098;-71
2023/07/30 06:12:38;;;;;;;1.15;1.05;;;;;;;;;;5005667;28;20045;-71
2023/07/30 06:15:06;;;;;;;0.93;0.93;;;;;;;;;;5005222;28;21030;-71
2023/07/30 06:17:31;;;;;;;1.00;1.00;;;;;;;;;;5015295;28;20473;-70
2023/07/30 06:19:57;;;;;;;0.95;0.95;;;;;;;;;;5004839;28;21058;-71
2023/07/30 06:22:22;;;;;;;4.80;1.17;;;;;;;;;;5002755;28;20054;-71
2023/07/30 06:24:47;;;;;;;1.20;1.10;;;;;;;;;;4996894;28;20041;-70
2023/07/30 06:27:13;;;;;;;1.00;1.00;;;;;;;;;;5000361;28;20053;-71
2023/07/30 06:29:38;;;;;;;1.13;1.00;;;;;;;;;;4999736;28;20073;-70
2023/07/30 06:32:04;;;;;;;1.30;1.20;;;;;;;;;;5004105;28;20049;-70
2023/07/30 06:34:30;;;;;;;1.63;1.10;;;;;;;;;;5010740;28;20048;-70
2023/07/30 06:36:55;;;;;;;1.35;1.20;;;;;;;;;;5008573;28;20042;-71
2023/07/30 06:39:21;;;;;;;1.27;1.10;;;;;;;;;;5004289;28;20060;-70
2023/07/30 06:41:47;;;;;;;0.93;0.93;;;;;;;;;;5003106;28;20471;-70
2023/07/30 06:44:13;;;;;;;0.88;0.80;;;;;;;;;;5001897;28;20115;-71
2023/07/30 06:46:38;;;;;;;1.58;1.10;;;;;;;;;;5005931;28;20045;-70
2023/07/30 06:49:03;;;;;;;1.65;1.17;;;;;;;;;;5006102;28;20137;-71
2023/07/30 06:51:30;;;;;;;1.15;1.05;;;;;;;;;;5008922;28;20057;-70
2023/07/30 06:53:56;;;;;;;2.60;1.00;;;;;;;;;;5007143;28;20452;-70
2023/07/30 06:56:21;;;;;;;1.10;1.00;;;;;;;;;;5009963;28;20050;-69
2023/07/30 06:58:47;;;;;;;1.38;0.80;;;;;;;;;;5011428;28;20148;-71
2023/07/30 07:01:12;;;;;;;1.05;1.00;;;;;;;;;;5009621;28;20563;-72
2023/07/30 07:03:38;;;;;;;1.00;0.90;;;;;;;;;;4998068;28;20056;-71
2023/07/30 07:06:04;;;;;;;1.73;1.02;;;;;;;;;;5006481;28;20073;-73
2023/07/30 07:08:30;;;;;;;1.42;1.10;;;;;;;;;;5002531;28;20602;-72
2023/07/30 07:10:56;;;;;;;1.30;1.10;;;;;;;;;;5000991;28;20137;-70
2023/07/30 07:13:21;;;;;;;1.20;1.10;;;;;;;;;;4998584;28;20074;-71
2023/07/30 07:15:47;;;;;;;3.17;1.10;;;;;;;;;;5005683;28;20077;-71
2023/07/30 07:18:12;;;;;;;1.00;1.00;;;;;;;;;;5000804;28;20052;-70
2023/07/30 07:20:38;;;;;;;1.75;1.02;;;;;;;;;;5001493;28;20140;-73
2023/07/30 07:23:03;;;;;;;0.90;0.90;;;;;;;;;;5001404;28;20064;-72
2023/07/30 07:25:29;;;;;;;2.05;0.90;;;;;;;;;;5001514;28;20077;-70
2023/07/30 07:27:55;;;;;;;1.10;1.00;;;;;;;;;;5000244;28;20066;-71
2023/07/30 07:30:20;;;;;;;1.63;1.27;;;;;;;;;;5000758;28;20129;-70
2023/07/30 07:32:50;;;;;;;1.17;1.10;;;;;;;;;;4998823;28;20120;-72
2023/07/30 07:35:16;;;;;;;1.23;1.00;;;;;;;;;;4995109;28;20045;-72
2023/07/30 07:37:41;;;;;;;1.17;1.08;;;;;;;;;;5008278;28;20418;-71
2023/07/30 07:40:09;;;;;;;1.13;1.00;;;;;;;;;;5007875;28;20077;-71
2023/07/30 07:42:35;;;;;;;3.20;1.10;;;;;;;;;;5009171;28;20045;-71
2023/07/30 07:45:00;;;;;;;1.38;1.27;;;;;;;;;;5003482;28;20041;-71
2023/07/30 07:47:26;;;;;;;1.88;1.17;;;;;;;;;;5008624;28;20072;-74
2023/07/30 07:49:51;;;;;;;3.50;1.10;;;;;;;;;;5008174;28;20057;-71
2023/07/30 07:52:20;;;;;;;1.20;1.10;;;;;;;;;;4999230;28;20560;-71
2023/07/30 07:54:46;;;;;;;0.65;0.65;;;;;;;;;;5007009;28;20558;-72
2023/07/30 07:57:11;;;;;;;1.33;0.90;;;;;;;;;;5004450;28;20088;-72
2023/07/30 07:59:37;;;;;;;1.00;1.00;;;;;;;;;;5008034;28;20041;-71
2023/07/30 08:02:03;;;;;;;1.98;0.73;;;;;;;;;;5005164;28;20092;-70
2023/07/30 08:04:28;;;;;;;1.10;0.98;;;;;;;;;;5005400;28;20457;-72
2023/07/30 08:06:53;;;;;;;1.17;1.00;;;;;;;;;;5007331;28;20045;-70
2023/07/30 08:09:19;;;;;;;1.20;1.10;;;;;;;;;;5007192;28;20065;-72
2023/07/30 08:11:44;;;;;;;2.60;0.82;;;;;;;;;;5008007;28;20049;-70
2023/07/30 08:14:10;;;;;;;2.33;1.08;;;;;;;;;;5006760;28;20050;-70
2023/07/30 08:16:35;;;;;;;0.90;0.90;;;;;;;;;;5007561;28;20410;-69
2023/07/30 08:19:01;;;;;;;1.23;1.13;;;;;;;;;;5004971;28;20059;-71
2023/07/30 08:21:26;;;;;;;1.45;1.10;;;;;;;;;;5007250;28;20157;-71
2023/07/30 08:23:52;;;;;;;2.15;1.13;;;;;;;;;;5021218;28;20065;-71
2023/07/30 08:26:17;;;;;;;0.98;0.98;;;;;;;;;;5007398;28;20053;-70
2023/07/30 08:28:43;;;;;;;0.93;0.93;;;;;;;;;;5003904;28;20053;-70
2023/07/30 08:31:08;;;;;;;2.65;1.10;;;;;;;;;;5005809;28;20045;-70
2023/07/30 08:33:33;;;;;;;0.93;0.90;;;;;;;;;;5008575;28;20042;-69
2023/07/30 08:35:59;;;;;;;1.98;1.02;;;;;;;;;;4987188;28;20052;-68
2023/07/30 08:38:25;;;;;;;1.35;0.90;;;;;;;;;;4997474;28;20583;-70
2023/07/30 08:40:51;;;;;;;1.10;1.00;;;;;;;;;;5003991;28;20046;-68
2023/07/30 08:43:18;;;;;;;1.67;1.23;;;;;;;;;;5005247;28;20054;-70
2023/07/30 08:45:44;;;;;;;1.20;1.10;;;;;;;;;;4995357;28;20162;-72
2023/07/30 08:48:10;;;;;;;1.55;1.15;;;;;;;;;;5007242;28;20295;-73
2023/07/30 08:50:36;;;;;;;3.13;1.00;;;;;;;;;;5007663;28;20053;-70
2023/07/30 08:53:03;;;;;;;1.27;1.17;;;;;;;;;;5008175;28;20049;-70
2023/07/30 08:55:29;;;;;;;0.90;0.90;;;;;;;;;;5012128;28;20046;-70
2023/07/30 08:57:59;;;;;;;1.05;0.88;;;;;;;;;;5010861;28;20517;-70
2023/07/30 09:00:27;;;;;;;1.45;0.95;;;;;;;;;;5010407;28;20048;-71
2023/07/30 09:02:59;;;;;;;1.42;0.93;;;;;;;;;;5011322;28;20038;-71
2023/07/30 09:05:29;;;;;;;0.80;0.80;;;;;;;;;;5010764;28;20048;-70
2023/07/30 09:07:54;;;;;;;2.05;0.88;;;;;;;;;;5011034;28;20341;-72
2023/07/30 09:10:20;;;;;;;3.15;0.95;;;;;;;;;;5004874;28;21062;-73
2023/07/30 09:12:51;;;;;;;1.35;1.00;;;;;;;;;;4985910;28;20042;-72
2023/07/30 09:15:17;;;;;;;6.63;1.00;;;;;;;;;;5007305;28;20100;-73
2023/07/30 09:17:42;;;;;;;0.90;0.90;;;;;;;;;;5003559;28;20058;-73
2023/07/30 09:20:08;;;;;;;1.00;0.80;;;;;;;;;;5007578;28;20052;-73
2023/07/30 09:22:40;;;;;;;1.30;1.02;;;;;;;;;;5006090;28;20239;-72
2023/07/30 09:25:07;;;;;;;1.15;0.88;;;;;;;;;;5009197;28;20061;-73
2023/07/30 09:27:33;;;;;;;0.65;0.65;;;;;;;;;;5006518;28;20748;-73
2023/07/30 09:30:00;;;;;;;1.13;1.02;;;;;;;;;;5003560;28;20042;-73
2023/07/30 09:32:27;;;;;;;1.23;1.13;;;;;;;;;;4999719;28;20104;-71
2023/07/30 09:34:53;;;;;;;0.90;0.90;;;;;;;;;;5006936;28;20053;-71
2023/07/30 09:37:19;;;;;;;0.90;0.90;;;;;;;;;;4999046;28;20203;-71
2023/07/30 09:39:47;;;;;;;1.10;1.00;;;;;;;;;;5012348;28;20049;-71
2023/07/30 09:42:13;;;;;;;0.93;0.82;;;;;;;;;;5009011;28;20152;-73
2023/07/30 09:44:39;;;;;;;1.40;1.08;;;;;;;;;;5000505;28;20161;-72
2023/07/30 09:47:09;;;;;;;2.35;1.17;;;;;;;;;;5004850;28;20045;-72
2023/07/30 09:49:35;;;;;;;1.00;1.00;;;;;;;;;;5000305;28;20049;-72
2023/07/30 09:52:03;;;;;;;1.15;1.05;;;;;;;;;;4999437;28;20751;-72
2023/07/30 09:54:29;;;;;;;1.45;1.00;;;;;;;;;;5000837;28;20471;-73
2023/07/30 09:56:54;;;;;;;1.85;1.10;;;;;;;;;;5008236;28;20053;-72
2023/07/30 09:59:20;;;;;;;1.17;1.08;;;;;;;;;;4999261;28;20058;-73
2023/07/30 10:01:52;;;;;;;1.10;1.00;;;;;;;;;;5004847;28;20160;-72
2023/07/30 10:04:20;;;;;;;2.28;0.90;;;;;;;;;;5000558;28;20042;-72
2023/07/30 10:06:53;;;;;;;1.42;0.80;;;;;;;;;;5006078;28;20052;-72
2023/07/30 10:09:20;;;;;;;1.00;1.00;;;;;;;;;;4998261;28;20053;-71
2023/07/30 10:11:47;;;;;;;0.80;0.80;;;;;;;;;;5001566;28;20046;-71
2023/07/30 10:14:16;;;;;;;1.50;0.90;;;;;;;;;;5010541;28;20061;-71
2023/07/30 10:16:53;;;;;;;1.98;1.10;;;;;;;;;;5004385;28;20068;-72
2023/07/30 10:19:23;;;;;;;3.33;1.20;;;;;;;;;;5003410;28;20050;-72
2023/07/30 10:21:49;;;;;;;0.85;0.70;;;;;;;;;;5007923;28;20053;-72
2023/07/30 10:24:14;;;;;;;0.80;0.80;;;;;;;;;;5004166;28;20049;-71
2023/07/30 10:26:39;;;;;;;0.80;0.70;;;;;;;;;;5003192;28;20052;-72
2023/07/30 10:29:18;;;;;;;1.27;0.93;;;;;;;;;;5003305;28;20052;-73
2023/07/30 10:31:55;;;;;;;1.42;0.90;;;;;;;;;;5008441;28;20559;-72
2023/07/30 10:34:21;;;;;;;1.30;0.82;;;;;;;;;;5008790;28;20030;-73
2023/07/30 10:36:49;;;;;;;1.05;0.95;;;;;;;;;;5005120;28;20046;-72
2023/07/30 10:39:22;;;;;;;1.30;0.90;;;;;;;;;;5010774;28;20049;-73
2023/07/30 10:41:54;;;;;;;0.75;0.75;;;;;;;;;;5001851;28;20550;-73
2023/07/30 10:44:34;;;;;;;1.08;0.98;;;;;;;;;;5009186;28;20503;-73
2023/07/30 10:47:01;;;;;;;0.80;0.80;;;;;;;;;;5008617;28;20054;-73
2023/07/30 10:49:27;;;;;;;1.30;0.88;;;;;;;;;;5003357;28;20053;-73
2023/07/30 10:51:54;;;;;;;1.13;1.02;;;;;;;;;;5005698;28;20044;-73
2023/07/30 10:54:19;;;;;;;2.78;1.13;;;;;;;;;;5008543;28;20061;-72
2023/07/30 10:56:45;;;;;;;1.05;0.50;;;;;;;;;;5010604;28;20418;-72
2023/07/30 10:59:12;;;;;;;3.63;1.10;;;;;;;;;;5013323;28;20410;-71
2023/07/30 11:01:40;;;;;;;1.65;0.75;;;;;;;;;;5014795;28;20050;-71
2023/07/30 11:04:10;;;;;;;1.33;1.00;;;;;;;;;;5005931;28;20088;-71
2023/07/30 11:06:35;;;;;;;1.23;0.77;;;;;;;;;;5006860;28;20049;-71
2023/07/30 11:09:01;;;;;;;1.67;0.95;;;;;;;;;;5004109;28;20410;-72
2023/07/30 11:11:26;;;;;;;1.98;1.00;;;;;;;;;;5005547;28;20686;-71
2023/07/30 11:13:52;;;;;;;1.27;0.88;;;;;;;;;;5005298;28;20049;-71
2023/07/30 11:16:17;;;;;;;0.95;0.90;;;;;;;;;;5006186;28;20049;-72
2023/07/30 11:18:44;;;;;;;0.93;0.88;;;;;;;;;;5001877;28;20050;-73
2023/07/30 11:21:12;;;;;;;1.17;1.08;;;;;;;;;;5007219;28;20528;-72
2023/07/30 11:23:39;;;;;;;1.48;1.10;;;;;;;;;;5009755;28;20143;-72
2023/07/30 11:26:06;;;;;;;1.40;0.90;;;;;;;;;;5007202;28;20042;-73
2023/07/30 11:28:36;;;;;;;2.25;0.90;;;;;;;;;;5011627;28;20038;-72
2023/07/30 11:31:04;;;;;;;1.02;0.93;;;;;;;;;;5009781;28;20132;-73
2023/07/30 11:33:31;;;;;;;1.17;0.80;;;;;;;;;;5010419;28;20096;-72
2023/07/30 11:35:57;;;;;;;2.40;1.20;;;;;;;;;;5008172;28;20092;-73
2023/07/30 11:38:26;;;;;;;1.05;0.90;;;;;;;;;;5011569;28;20129;-73
2023/07/30 11:40:53;;;;;;;1.48;1.00;;;;;;;;;;5010374;28;20048;-74
2023/07/30 11:43:20;;;;;;;1.20;1.10;;;;;;;;;;5011193;28;20037;-72
2023/07/30 11:45:46;;;;;;;1.00;0.90;;;;;;;;;;5007540;28;20068;-73
2023/07/30 11:48:11;;;;;;;0.90;0.90;;;;;;;;;;5010567;28;20057;-72
2023/07/30 11:50:48;;;;;;;0.85;0.80;;;;;;;;;;5015928;28;20693;-72
2023/07/30 11:53:14;;;;;;;1.45;0.90;;;;;;;;;;5008902;28;20121;-73
2023/07/30 11:55:41;;;;;;;1.05;0.70;;;;;;;;;;5005434;28;20487;-72
2023/07/30 11:58:07;;;;;;;0.70;0.70;;;;;;;;;;5004080;28;20050;-72
2023/07/30 12:00:33;;;;;;;1.00;0.90;;;;;;;;;;5004812;28;20133;-72
2023/07/30 12:03:08;;;;;;;0.75;0.75;;;;;;;;;;5003191;28;20179;-73
2023/07/30 12:05:35;;;;;;;1.08;0.88;;;;;;;;;;5011291;28;20042;-73
2023/07/30 12:08:07;;;;;;;0.90;0.90;;;;;;;;;;5006006;28;20057;-73
2023/07/30 12:10:43;;;;;;;;;;;;;;;;;;5001151;28;20082;-72
2023/07/30 12:13:15;;;;;;;1.02;0.90;;;;;;;;;;5004768;28;19921;-73
2023/07/30 12:15:42;;;;;;;;;;;;;;;;;;5006274;28;20049;-73
2023/07/30 12:18:08;;;;;;;0.80;0.80;;;;;;;;;;5004885;28;19924;-73
2023/07/30 12:20:33;;;;;;;1.25;0.90;;;;;;;;;;5005373;28;20045;-74
2023/07/30 12:22:58;;;;;;;0.70;0.70;;;;;;;;;;5010334;28;20049;-74
2023/07/30 12:25:24;;;;;;;0.93;0.75;;;;;;;;;;5004817;28;20034;-74
2023/07/30 12:27:49;;;;;;;1.80;0.93;;;;;;;;;;5006540;28;20108;-74
2023/07/30 12:30:15;;;;;;;1.45;1.00;;;;;;;;;;5003485;28;20049;-74
2023/07/30 12:32:41;;;;;;;0.90;0.90;;;;;;;;;;5004847;28;20867;-74
2023/07/30 12:35:06;;;;;;;1.45;1.20;;;;;;;;;;5008721;28;20096;-75
2023/07/30 12:37:32;;;;;;;1.05;0.90;;;;;;;;;;5003852;28;20053;-73
2023/07/30 12:39:58;;;;;;;1.02;0.93;;;;;;;;;;5005403;28;20056;-74
2023/07/30 12:42:23;;;;;;;1.27;1.02;;;;;;;;;;5004478;28;20046;-74
2023/07/30 12:44:49;;;;;;;0.80;0.80;;;;;;;;;;5007645;28;21390;-74
2023/07/30 12:47:14;;;;;;;0.98;0.98;;;;;;;;;;5003974;28;20112;-73
2023/07/30 12:49:39;;;;;;;1.25;1.05;;;;;;;;;;5007544;28;20994;-73
2023/07/30 12:52:05;;;;;;;0.98;0.88;;;;;;;;;;5006199;28;20046;-73
2023/07/30 12:54:31;;;;;;;1.85;1.10;;;;;;;;;;5006793;28;20688;-73
2023/07/30 12:56:56;;;;;;;1.05;0.88;;;;;;;;;;5006470;28;20045;-73
2023/07/30 12:59:22;;;;;;;1.50;1.20;;;;;;;;;;5004033;28;20188;-73
2023/07/30 13:01:48;;;;;;;1.70;1.17;;;;;;;;;;5008372;28;20042;-73
2023/07/30 13:04:13;;;;;;;0.93;0.93;;;;;;;;;;5000576;28;20048;-73
2023/07/30 13:06:39;;;;;;;1.13;0.90;;;;;;;;;;5002733;28;20129;-73
2023/07/30 13:09:04;;;;;;;3.05;0.90;;;;;;;;;;4987794;28;20045;-74
2023/07/30 13:11:30;;;;;;;1.17;1.02;;;;;;;;;;5002433;28;20046;-75
2023/07/30 13:13:56;;;;;;;0.70;0.70;;;;;;;;;;5003301;28;20041;-73
2023/07/30 13:16:22;;;;;;;0.82;0.80;;;;;;;;;;5000936;28;20129;-74
2023/07/30 13:18:47;;;;;;;0.82;0.82;;;;;;;;;;5003455;28;20099;-75
2023/07/30 13:21:16;;;;;;;0.82;0.68;;;;;;;;;;4999430;28;20061;-74
2023/07/30 13:23:41;;;;;;;1.45;0.90;;;;;;;;;;5004049;28;20072;-74
2023/07/30 13:26:07;;;;;;;0.80;0.80;;;;;;;;;;4998051;28;20054;-75
2023/07/30 13:28:32;;;;;;;2.08;1.15;;;;;;;;;;5003276;28;20099;-73
2023/07/30 13:30:58;;;;;;;2.50;1.05;;;;;;;;;;5003988;28;20042;-73
2023/07/30 13:33:23;;;;;;;0.90;0.90;;;;;;;;;;5003651;28;20057;-73
2023/07/30 13:35:49;;;;;;;1.83;0.80;;;;;;;;;;5007244;28;20042;-73
2023/07/30 13:38:14;;;;;;;1.50;1.08;;;;;;;;;;4998508;28;20045;-73
2023/07/30 13:40:40;;;;;;;1.13;1.02;;;;;;;;;;5000713;28;20376;-72
2023/07/30 13:43:05;;;;;;;2.78;1.10;;;;;;;;;;5003468;28;20057;-72
2023/07/30 13:45:31;;;;;;;0.90;0.90;;;;;;;;;;5007155;28;20079;-72
2023/07/30 13:47:57;;;;;;;0.80;0.80;;;;;;;;;;5007472;28;20053;-73
2023/07/30 13:50:22;;;;;;;0.85;0.85;;;;;;;;;;5004051;28;20577;-73
2023/07/30 13:52:47;;;;;;;1.30;1.20;;;;;;;;;;5001439;28;20111;-73
2023/07/30 13:55:13;;;;;;;1.05;0.90;;;;;;;;;;5008558;28;20140;-73
2023/07/30 13:57:38;;;;;;;1.63;1.20;;;;;;;;;;4996467;28;20060;-73
2023/07/30 14:00:06;;;;;;;3.83;1.00;;;;;;;;;;5007264;28;20600;-72
2023/07/30 14:02:31;;;;;;;1.40;1.00;;;;;;;;;;4998894;28;20046;-72
2023/07/30 14:04:57;;;;;;;4.35;1.30;;;;;;;;;;5005706;28;20764;-73
2023/07/30 14:07:22;;;;;;;1.50;1.20;;;;;;;;;;5001014;28;20527;-73
2023/07/30 14:09:48;;;;;;;1.35;1.25;;;;;;;;;;5003209;28;20461;-72
2023/07/30 14:12:13;;;;;;;1.48;1.10;;;;;;;;;;5006171;28;20564;-72
2023/07/30 14:14:38;;;;;;;2.45;1.10;;;;;;;;;;5003820;28;20041;-72
2023/07/30 14:17:06;;;;;;;1.83;1.50;;;;;;;;;;4999490;28;20041;-73
2023/07/30 14:19:32;;;;;;;3.85;1.58;;;;;;;;;;5004290;28;20072;-74
2023/07/30 14:21:58;;;;;;;2.22;1.35;;;;;;;;;;4988285;28;20096;-73
2023/07/30 14:24:27;;;;;;;2.72;1.63;;;;;;;;;;5006154;28;20450;-73
2023/07/30 14:26:52;;;;;;;2.60;1.30;;;;;;;;;;5006929;28;20103;-73
2023/07/30 14:29:18;;;;;;;3.92;1.73;;;;;;;;;;5006478;28;20049;-72
2023/07/30 14:31:43;;;;;;;1.73;1.35;;;;;;;;;;5005702;28;20962;-72
2023/07/30 14:34:09;;;;;;;1.42;1.33;;;;;;;;;;5000230;28;20168;-73
2023/07/30 14:36:34;;;;;;;2.05;1.50;;;;;;;;;;5009461;28;20616;-73